New Effington, South Dakota
Current Conditions -  °F | °C
As of 10:16 PM on Friday 24 Oct 2014 (Local Time) from KETH Reporting Station
Clear Clear  
Wind Chill: 57°   Ceiling: Unl
Heat Index: 57°   Visibility: 10mi
Dew Point: 37°   Wind: 8mph
Humidity: 48%   Direction: 290°WNW
Pressure: 29.97"   Gusts: NA
Location:  45.86°N, 96.92°W
Report Text: KETH 250316Z AUTO 29007KT 10SM CLR 14/03 A2997 RMK AO2
Loading
Personal Weather Stations






























Interactive Weather Map
Tropical Storm Tracking
New forecast layout! Learn more

10-Day Weather Forecast

Advertisements
Track Severe Weather on mobile